Yaupon Beach, North Carolina
Current Conditions -  °F | °C
As of 12:55 PM on Friday 24 Oct 2014 (Local Time) from KSUT Reporting Station
Clear Clear  
Wind Chill: 67°   Ceiling: Unl
Heat Index: 67°   Visibility: 10mi
Dew Point: 47°   Wind: 3mph
Humidity: 48%   Direction: 80°E
Pressure: 30.02"   Gusts: NA
Location:  33.9216°N, 78.1244°W
Report Text: KSUT 241655Z AUTO 08003KT 10SM CLR 19/08 A3002 RMK AO2 T01940082
Loading
Personal Weather Stations






























Interactive Weather Map New forecast layout! Learn more

10-Day Weather Forecast

Advertisements
Track Severe Weather on mobile